Time;durP1;ratioP1;P1;durP2;ratioP2;P2;SDS_P1;SDS_P2;PMS_P1;PMS_P2;Temp;Humidity;BMP_temperature;BMP_pressure;BME280_temperature;BME280_humidity;BME280_pressure;Samples;Min_cycle;Max_cycle;Signal;HPM_P1;HPM_P2
2024/01/26 00:00:29;;;;;;;1.43;1.40;;;;;;;;;;5010523;28;20231;-64
2024/01/26 00:02:59;;;;;;;1.27;1.27;;;;;;;;;;5007667;28;20223;-64
2024/01/26 00:05:26;;;;;;;1.40;1.40;;;;;;;;;;5012590;28;20202;-64
2024/01/26 00:07:53;;;;;;;2.13;1.70;;;;;;;;;;5011009;28;20211;-63
2024/01/26 00:10:21;;;;;;;2.40;2.30;;;;;;;;;;5011436;28;20204;-63
2024/01/26 00:12:48;;;;;;;2.17;1.97;;;;;;;;;;5010185;28;20230;-64
2024/01/26 00:15:16;;;;;;;2.23;2.13;;;;;;;;;;5013368;28;20203;-63
2024/01/26 00:17:43;;;;;;;2.13;2.03;;;;;;;;;;5009207;28;20203;-66
2024/01/26 00:20:11;;;;;;;2.10;2.00;;;;;;;;;;5010039;28;20290;-62
2024/01/26 00:22:38;;;;;;;1.80;1.70;;;;;;;;;;5009061;28;20208;-65
2024/01/26 00:25:06;;;;;;;2.00;1.90;;;;;;;;;;5008065;28;20321;-65
2024/01/26 00:27:35;;;;;;;1.60;1.50;;;;;;;;;;5007349;28;20223;-63
2024/01/26 00:30:02;;;;;;;1.60;1.50;;;;;;;;;;5006728;28;20239;-64
2024/01/26 00:32:30;;;;;;;2.27;2.07;;;;;;;;;;5005616;28;20930;-64
2024/01/26 00:34:57;;;;;;;2.50;2.30;;;;;;;;;;5013509;28;20198;-63
2024/01/26 00:37:24;;;;;;;2.40;2.20;;;;;;;;;;5016628;28;20292;-64
2024/01/26 00:39:52;;;;;;;2.53;2.33;;;;;;;;;;5014545;28;20219;-64
2024/01/26 00:42:19;;;;;;;2.43;2.23;;;;;;;;;;5018244;28;20217;-63
2024/01/26 00:44:46;;;;;;;2.20;2.10;;;;;;;;;;5015779;28;20757;-64
2024/01/26 00:47:14;;;;;;;2.50;2.30;;;;;;;;;;5014883;28;20223;-63
2024/01/26 00:49:41;;;;;;;2.03;1.93;;;;;;;;;;5015889;28;20195;-63
2024/01/26 00:52:18;;;;;;;2.30;2.13;;;;;;;;;;4995227;28;20203;-64
2024/01/26 00:54:46;;;;;;;2.30;2.10;;;;;;;;;;5012193;28;20235;-64
2024/01/26 00:57:13;;;;;;;2.33;2.23;;;;;;;;;;5009967;28;20249;-64
2024/01/26 00:59:41;;;;;;;2.20;2.10;;;;;;;;;;5015234;28;20199;-64
2024/01/26 01:02:08;;;;;;;2.43;2.33;;;;;;;;;;4995956;28;20203;-64
2024/01/26 01:04:36;;;;;;;2.40;2.30;;;;;;;;;;5012271;28;20234;-63
2024/01/26 01:07:03;;;;;;;2.60;2.40;;;;;;;;;;5006430;28;20232;-64
2024/01/26 01:09:31;;;;;;;2.90;2.70;;;;;;;;;;5009074;28;20208;-63
2024/01/26 01:11:59;;;;;;;2.80;2.50;;;;;;;;;;5008874;28;20325;-64
2024/01/26 01:14:28;;;;;;;2.80;2.60;;;;;;;;;;5011303;28;20227;-65
2024/01/26 01:16:56;;;;;;;2.73;2.53;;;;;;;;;;5023052;28;20298;-64
2024/01/26 01:19:24;;;;;;;2.90;2.70;;;;;;;;;;5009732;28;20849;-63
2024/01/26 01:21:51;;;;;;;2.67;2.47;;;;;;;;;;5010058;28;20215;-62
2024/01/26 01:24:19;;;;;;;2.97;2.50;;;;;;;;;;5005439;28;20853;-62
2024/01/26 01:26:46;;;;;;;2.87;2.50;;;;;;;;;;5004397;28;20231;-64
2024/01/26 01:29:13;;;;;;;2.80;2.60;;;;;;;;;;5010643;28;20700;-64
2024/01/26 01:31:41;;;;;;;3.00;2.80;;;;;;;;;;5006670;28;20681;-64
2024/01/26 01:34:08;;;;;;;3.00;2.80;;;;;;;;;;5011492;28;20222;-64
2024/01/26 01:36:36;;;;;;;3.67;3.37;;;;;;;;;;5001233;28;20770;-63
2024/01/26 01:39:03;;;;;;;3.93;3.63;;;;;;;;;;5004232;28;20225;-64
2024/01/26 01:41:30;;;;;;;4.30;3.50;;;;;;;;;;4988359;28;20215;-64
2024/01/26 01:43:58;;;;;;;5.13;3.90;;;;;;;;;;5007334;28;20723;-64
2024/01/26 01:46:25;;;;;;;3.80;3.50;;;;;;;;;;5003417;28;20289;-64
2024/01/26 01:48:53;;;;;;;3.67;2.93;;;;;;;;;;5005489;28;20201;-64
2024/01/26 01:51:21;;;;;;;4.53;3.47;;;;;;;;;;5009836;28;20293;-65
2024/01/26 01:53:49;;;;;;;3.20;2.87;;;;;;;;;;5004129;28;20274;-63
2024/01/26 01:56:20;;;;;;;4.17;3.17;;;;;;;;;;4981867;28;20492;-62
2024/01/26 01:58:48;;;;;;;3.23;3.00;;;;;;;;;;5008786;28;20250;-64
2024/01/26 02:01:15;;;;;;;2.87;2.67;;;;;;;;;;5008645;28;20301;-65
2024/01/26 02:03:42;;;;;;;2.43;2.23;;;;;;;;;;5011843;28;20229;-63
2024/01/26 02:06:10;;;;;;;2.40;2.20;;;;;;;;;;5009025;28;20218;-63
2024/01/26 02:08:37;;;;;;;3.40;3.00;;;;;;;;;;5011550;28;20208;-64
2024/01/26 02:11:04;;;;;;;6.33;4.63;;;;;;;;;;5007258;28;20289;-63
2024/01/26 02:13:32;;;;;;;6.97;5.07;;;;;;;;;;5008589;28;20227;-62
2024/01/26 02:15:59;;;;;;;5.13;3.83;;;;;;;;;;5007851;28;20652;-63
2024/01/26 02:18:27;;;;;;;3.73;3.23;;;;;;;;;;5008408;28;20230;-64
2024/01/26 02:20:54;;;;;;;2.80;2.60;;;;;;;;;;5008584;28;20610;-64
2024/01/26 02:23:23;;;;;;;2.47;2.27;;;;;;;;;;5004833;28;20779;-64
2024/01/26 02:25:50;;;;;;;3.43;2.67;;;;;;;;;;5005100;28;20218;-63
2024/01/26 02:28:18;;;;;;;3.43;2.97;;;;;;;;;;5028969;28;20208;-62
2024/01/26 02:30:45;;;;;;;3.97;3.53;;;;;;;;;;5010318;28;20203;-64
2024/01/26 02:33:13;;;;;;;5.63;4.13;;;;;;;;;;4991191;28;20314;-64
2024/01/26 02:35:40;;;;;;;4.97;3.77;;;;;;;;;;5001910;28;20623;-64
2024/01/26 02:38:08;;;;;;;4.40;4.00;;;;;;;;;;4987293;28;20214;-64
2024/01/26 02:40:35;;;;;;;5.97;3.73;;;;;;;;;;5006774;28;20200;-64
2024/01/26 02:43:03;;;;;;;2.70;2.50;;;;;;;;;;5011071;28;20271;-62
2024/01/26 02:45:30;;;;;;;2.83;2.40;;;;;;;;;;5005104;28;20211;-64
2024/01/26 02:47:57;;;;;;;2.50;2.30;;;;;;;;;;5010271;28;20285;-63
2024/01/26 02:50:25;;;;;;;2.60;2.40;;;;;;;;;;5008682;28;20235;-64
2024/01/26 02:52:52;;;;;;;3.47;2.50;;;;;;;;;;5008177;28;20227;-65
2024/01/26 02:55:20;;;;;;;2.60;2.30;;;;;;;;;;5025080;28;20208;-63
2024/01/26 02:57:47;;;;;;;5.20;2.20;;;;;;;;;;5006437;28;20215;-64
2024/01/26 03:00:15;;;;;;;2.03;1.90;;;;;;;;;;5014475;28;20212;-64
2024/01/26 03:02:42;;;;;;;3.10;2.30;;;;;;;;;;5012816;28;20203;-64
2024/01/26 03:05:10;;;;;;;3.07;2.30;;;;;;;;;;5010248;28;20210;-63
2024/01/26 03:07:38;;;;;;;2.07;1.90;;;;;;;;;;5017499;28;20241;-64
2024/01/26 03:10:06;;;;;;;1.80;1.70;;;;;;;;;;5002743;28;20208;-64
2024/01/26 03:12:36;;;;;;;1.47;1.40;;;;;;;;;;4993971;28;21099;-64
2024/01/26 03:15:03;;;;;;;1.47;1.40;;;;;;;;;;4987373;28;20243;-63
2024/01/26 03:17:31;;;;;;;1.40;1.40;;;;;;;;;;4985532;28;20218;-63
2024/01/26 03:19:59;;;;;;;1.40;1.30;;;;;;;;;;4987908;28;20230;-63
2024/01/26 03:22:26;;;;;;;1.43;1.37;;;;;;;;;;4983410;28;20223;-64
2024/01/26 03:24:53;;;;;;;1.30;1.30;;;;;;;;;;4986287;28;20242;-64
2024/01/26 03:27:21;;;;;;;1.20;1.20;;;;;;;;;;4993705;28;20230;-64
2024/01/26 03:29:48;;;;;;;1.40;1.30;;;;;;;;;;4990279;28;20215;-64
2024/01/26 03:32:15;;;;;;;1.60;1.30;;;;;;;;;;5001417;28;20204;-64
2024/01/26 03:34:43;;;;;;;1.50;1.40;;;;;;;;;;5009881;28;20231;-64
2024/01/26 03:37:10;;;;;;;1.30;1.30;;;;;;;;;;5009932;28;20203;-62
2024/01/26 03:39:37;;;;;;;1.80;1.43;;;;;;;;;;5025694;28;20207;-64
2024/01/26 03:42:05;;;;;;;1.50;1.40;;;;;;;;;;5028897;28;20226;-64
2024/01/26 03:44:33;;;;;;;1.40;1.30;;;;;;;;;;5005073;28;20255;-65
2024/01/26 03:47:00;;;;;;;1.83;1.30;;;;;;;;;;5012400;28;20238;-65
2024/01/26 03:49:27;;;;;;;1.70;1.60;;;;;;;;;;5009934;28;20195;-63
2024/01/26 03:51:55;;;;;;;1.30;1.20;;;;;;;;;;5009773;28;20203;-64
2024/01/26 03:54:22;;;;;;;1.30;1.20;;;;;;;;;;5009518;28;20230;-63
2024/01/26 03:56:49;;;;;;;1.10;1.10;;;;;;;;;;5008865;28;20278;-65
2024/01/26 03:59:16;;;;;;;1.20;1.20;;;;;;;;;;5007204;28;20212;-64
2024/01/26 04:01:44;;;;;;;2.77;2.17;;;;;;;;;;5005521;28;20211;-62
2024/01/26 04:04:11;;;;;;;3.23;2.80;;;;;;;;;;5003136;28;20366;-64
2024/01/26 04:06:40;;;;;;;1.50;1.50;;;;;;;;;;5000976;28;20349;-64
2024/01/26 04:09:07;;;;;;;1.30;1.30;;;;;;;;;;5008446;28;20199;-64
2024/01/26 04:11:35;;;;;;;1.10;1.10;;;;;;;;;;5012285;28;20740;-64
2024/01/26 04:14:02;;;;;;;1.03;1.03;;;;;;;;;;5026236;28;20313;-63
2024/01/26 04:16:29;;;;;;;1.00;1.00;;;;;;;;;;4997163;28;20207;-64
2024/01/26 04:18:57;;;;;;;1.10;1.10;;;;;;;;;;4991345;28;20199;-62
2024/01/26 04:21:25;;;;;;;1.10;1.10;;;;;;;;;;4982185;28;20205;-64
2024/01/26 04:23:52;;;;;;;1.23;1.23;;;;;;;;;;4989654;28;20754;-63
2024/01/26 04:26:19;;;;;;;1.53;1.43;;;;;;;;;;4989736;28;20320;-63
2024/01/26 04:28:47;;;;;;;1.30;1.20;;;;;;;;;;4993959;28;20283;-64
2024/01/26 04:31:14;;;;;;;1.30;1.30;;;;;;;;;;4990122;28;20270;-64
2024/01/26 04:33:41;;;;;;;1.30;1.30;;;;;;;;;;5011849;28;20243;-64
2024/01/26 04:36:09;;;;;;;1.40;1.20;;;;;;;;;;5009758;28;20299;-64
2024/01/26 04:38:37;;;;;;;1.30;1.30;;;;;;;;;;5008114;28;20214;-64
2024/01/26 04:41:05;;;;;;;1.33;1.33;;;;;;;;;;5011880;28;20211;-63
2024/01/26 04:43:32;;;;;;;1.90;1.80;;;;;;;;;;5009263;28;20223;-63
2024/01/26 04:46:00;;;;;;;2.63;1.90;;;;;;;;;;5022424;28;20903;-64
2024/01/26 04:48:27;;;;;;;2.00;1.90;;;;;;;;;;5010959;28;20599;-64
2024/01/26 04:50:55;;;;;;;2.83;2.63;;;;;;;;;;5009539;28;20239;-63
2024/01/26 04:53:22;;;;;;;2.10;2.00;;;;;;;;;;5006815;28;20824;-64
2024/01/26 04:55:49;;;;;;;2.50;2.27;;;;;;;;;;5002022;28;20207;-64
2024/01/26 04:58:16;;;;;;;3.30;2.20;;;;;;;;;;5003398;28;20696;-63
2024/01/26 05:00:44;;;;;;;2.50;2.30;;;;;;;;;;5008141;28;20208;-65
2024/01/26 05:03:11;;;;;;;3.23;2.93;;;;;;;;;;5008234;28;20227;-64
2024/01/26 05:05:40;;;;;;;4.23;3.83;;;;;;;;;;5007526;28;20214;-63
2024/01/26 05:08:08;;;;;;;3.83;3.10;;;;;;;;;;5011990;28;20543;-64
2024/01/26 05:10:35;;;;;;;2.17;2.00;;;;;;;;;;5009384;28;20215;-63
2024/01/26 05:13:02;;;;;;;1.87;1.70;;;;;;;;;;5005760;28;20692;-64
2024/01/26 05:15:30;;;;;;;2.00;1.90;;;;;;;;;;5007954;28;20880;-62
2024/01/26 05:17:59;;;;;;;2.60;1.97;;;;;;;;;;5008453;28;20306;-64
2024/01/26 05:20:26;;;;;;;2.10;2.00;;;;;;;;;;5006849;28;20267;-64
2024/01/26 05:22:54;;;;;;;4.27;1.80;;;;;;;;;;5002319;28;20231;-63
2024/01/26 05:25:21;;;;;;;2.83;2.53;;;;;;;;;;4991467;28;20207;-63
2024/01/26 05:27:50;;;;;;;2.70;2.47;;;;;;;;;;4986999;28;20959;-63
2024/01/26 05:30:19;;;;;;;3.93;3.30;;;;;;;;;;4986914;28;20647;-63
2024/01/26 05:32:47;;;;;;;3.77;3.07;;;;;;;;;;4993438;28;20670;-64
2024/01/26 05:35:15;;;;;;;10.13;7.27;;;;;;;;;;4986466;28;20208;-65
2024/01/26 05:37:44;;;;;;;4.73;4.23;;;;;;;;;;5000990;28;20210;-64
2024/01/26 05:40:12;;;;;;;4.00;3.10;;;;;;;;;;4982977;28;20208;-64
2024/01/26 05:42:39;;;;;;;3.93;3.00;;;;;;;;;;4996676;28;20222;-64
2024/01/26 05:45:07;;;;;;;6.23;5.83;;;;;;;;;;5023615;28;20298;-64
2024/01/26 05:47:34;;;;;;;3.70;3.40;;;;;;;;;;5006946;28;20227;-64
2024/01/26 05:50:03;;;;;;;5.00;4.70;;;;;;;;;;4997996;28;20719;-64
2024/01/26 05:52:31;;;;;;;2.20;2.00;;;;;;;;;;4985718;28;20295;-64
2024/01/26 05:54:58;;;;;;;2.03;1.90;;;;;;;;;;4987591;28;20840;-65
2024/01/26 05:57:25;;;;;;;2.00;1.90;;;;;;;;;;4989084;28;20211;-62
2024/01/26 05:59:53;;;;;;;2.43;2.33;;;;;;;;;;4988909;28;20702;-65
2024/01/26 06:02:21;;;;;;;2.03;1.93;;;;;;;;;;5000371;28;20387;-63
2024/01/26 06:04:49;;;;;;;2.33;1.97;;;;;;;;;;5017034;28;20235;-64
2024/01/26 06:07:16;;;;;;;2.30;2.10;;;;;;;;;;4987099;28;20875;-64
2024/01/26 06:09:45;;;;;;;1.90;1.80;;;;;;;;;;4987803;28;21800;-63
2024/01/26 06:12:16;;;;;;;2.40;1.70;;;;;;;;;;4996835;28;20212;-65
2024/01/26 06:14:44;;;;;;;1.67;1.57;;;;;;;;;;4985953;28;20251;-63
2024/01/26 06:17:12;;;;;;;1.90;1.80;;;;;;;;;;4990420;28;20207;-64
2024/01/26 06:19:40;;;;;;;1.80;1.70;;;;;;;;;;5001112;28;20709;-64
2024/01/26 06:22:07;;;;;;;2.00;1.90;;;;;;;;;;4989727;28;20759;-64
2024/01/26 06:24:35;;;;;;;2.10;2.00;;;;;;;;;;4989247;28;20227;-64
2024/01/26 06:27:02;;;;;;;1.90;1.80;;;;;;;;;;4988929;28;20597;-65
2024/01/26 06:29:30;;;;;;;2.03;1.67;;;;;;;;;;4990670;28;20881;-63
2024/01/26 06:32:00;;;;;;;1.90;1.80;;;;;;;;;;4995736;28;20208;-63
2024/01/26 06:34:28;;;;;;;2.63;1.60;;;;;;;;;;5001005;28;20219;-64
2024/01/26 06:36:55;;;;;;;2.20;1.57;;;;;;;;;;5010369;28;20207;-65
2024/01/26 06:39:23;;;;;;;1.67;1.57;;;;;;;;;;4999481;28;20291;-63
2024/01/26 06:41:50;;;;;;;1.30;1.30;;;;;;;;;;5011222;28;20575;-63
2024/01/26 06:44:18;;;;;;;2.97;1.50;;;;;;;;;;5023998;28;20224;-63
2024/01/26 06:46:45;;;;;;;1.40;1.40;;;;;;;;;;5008944;28;20219;-63
2024/01/26 06:49:13;;;;;;;1.40;1.30;;;;;;;;;;5010180;28;20223;-64
2024/01/26 06:51:40;;;;;;;1.70;1.60;;;;;;;;;;5007238;28;20290;-64
2024/01/26 06:54:07;;;;;;;1.57;1.47;;;;;;;;;;5021111;28;20247;-64
2024/01/26 06:56:35;;;;;;;1.47;1.37;;;;;;;;;;5007516;28;21449;-63
2024/01/26 06:59:02;;;;;;;1.93;1.83;;;;;;;;;;4988739;28;20290;-63
2024/01/26 07:01:30;;;;;;;2.33;2.13;;;;;;;;;;5008786;28;20262;-63
2024/01/26 07:03:57;;;;;;;2.00;1.90;;;;;;;;;;5027260;28;20226;-64
2024/01/26 07:06:25;;;;;;;3.27;2.60;;;;;;;;;;5011664;28;20209;-64
2024/01/26 07:08:53;;;;;;;4.17;3.47;;;;;;;;;;5012670;28;20750;-64
2024/01/26 07:11:22;;;;;;;2.40;2.20;;;;;;;;;;5011663;28;20206;-62
2024/01/26 07:13:49;;;;;;;2.67;2.23;;;;;;;;;;5000567;28;20238;-64
2024/01/26 07:16:16;;;;;;;4.70;2.93;;;;;;;;;;4995000;28;20584;-63
2024/01/26 07:18:44;;;;;;;2.83;2.63;;;;;;;;;;4998145;28;20204;-63
2024/01/26 07:21:12;;;;;;;2.10;2.00;;;;;;;;;;5003833;28;20266;-64
2024/01/26 07:23:41;;;;;;;2.77;1.53;;;;;;;;;;4996296;28;20736;-64
2024/01/26 07:26:18;;;;;;;1.53;1.43;;;;;;;;;;4995098;28;20208;-64
2024/01/26 07:28:46;;;;;;;1.87;1.67;;;;;;;;;;4991476;28;20602;-64
2024/01/26 07:31:13;;;;;;;1.60;1.50;;;;;;;;;;4993035;28;20886;-63
2024/01/26 07:33:41;;;;;;;1.90;1.80;;;;;;;;;;4992682;28;20238;-63
2024/01/26 07:36:09;;;;;;;2.37;1.87;;;;;;;;;;4996920;28;20246;-63
2024/01/26 07:38:36;;;;;;;1.53;1.43;;;;;;;;;;4997638;28;20748;-64
2024/01/26 07:41:04;;;;;;;2.00;1.90;;;;;;;;;;5006229;28;20211;-62
2024/01/26 07:43:31;;;;;;;3.77;1.80;;;;;;;;;;5011109;28;20240;-62
2024/01/26 07:45:59;;;;;;;2.70;2.50;;;;;;;;;;5007920;28;20706;-62
2024/01/26 07:48:26;;;;;;;3.63;3.27;;;;;;;;;;5023862;28;20307;-63
2024/01/26 07:50:54;;;;;;;3.20;2.90;;;;;;;;;;5010712;28;20587;-62
2024/01/26 07:53:21;;;;;;;3.27;3.00;;;;;;;;;;5005223;28;20409;-64
2024/01/26 07:55:50;;;;;;;2.77;1.70;;;;;;;;;;4989804;28;20317;-63
2024/01/26 07:58:17;;;;;;;2.20;1.60;;;;;;;;;;4971160;28;20212;-63
2024/01/26 08:00:47;;;;;;;1.40;1.30;;;;;;;;;;4986107;28;20212;-63
2024/01/26 08:03:14;;;;;;;2.83;1.50;;;;;;;;;;4985393;28;20364;-64
2024/01/26 08:05:42;;;;;;;2.00;1.53;;;;;;;;;;4998590;28;20216;-63
2024/01/26 08:08:09;;;;;;;2.40;1.47;;;;;;;;;;4985884;28;20240;-63
2024/01/26 08:10:37;;;;;;;1.60;1.50;;;;;;;;;;4988579;28;20512;-64
2024/01/26 08:13:05;;;;;;;1.90;1.80;;;;;;;;;;5001822;28;20236;-64
2024/01/26 08:15:32;;;;;;;1.60;1.50;;;;;;;;;;4988476;28;20490;-62
2024/01/26 08:18:00;;;;;;;1.70;1.60;;;;;;;;;;4987945;28;20215;-64
2024/01/26 08:20:29;;;;;;;1.77;1.67;;;;;;;;;;4991738;28;20211;-63
2024/01/26 08:22:56;;;;;;;1.70;1.60;;;;;;;;;;4986874;28;22035;-63
2024/01/26 08:25:24;;;;;;;1.47;1.43;;;;;;;;;;4997782;28;20208;-62
2024/01/26 08:27:53;;;;;;;2.07;1.70;;;;;;;;;;4970374;28;20222;-63
2024/01/26 08:30:22;;;;;;;1.70;1.60;;;;;;;;;;4985713;28;20238;-64
2024/01/26 08:32:50;;;;;;;1.60;1.50;;;;;;;;;;5000414;28;20218;-63
2024/01/26 08:35:18;;;;;;;2.27;1.60;;;;;;;;;;5016373;28;20675;-62
2024/01/26 08:37:46;;;;;;;1.57;1.50;;;;;;;;;;5006390;28;20215;-64
2024/01/26 08:40:13;;;;;;;1.50;1.40;;;;;;;;;;5009802;28;20212;-64
2024/01/26 08:42:41;;;;;;;1.77;1.67;;;;;;;;;;5010579;28;20214;-64
2024/01/26 08:45:09;;;;;;;1.80;1.70;;;;;;;;;;5022271;28;22927;-64
2024/01/26 08:47:37;;;;;;;3.90;1.77;;;;;;;;;;5022931;28;20211;-63
2024/01/26 08:50:05;;;;;;;2.17;2.07;;;;;;;;;;4990603;28;20210;-64
2024/01/26 08:52:32;;;;;;;1.97;1.87;;;;;;;;;;5009970;28;20318;-63
2024/01/26 08:55:00;;;;;;;1.93;1.83;;;;;;;;;;5005959;28;20195;-64
2024/01/26 08:57:28;;;;;;;2.50;2.27;;;;;;;;;;5012840;28;20211;-64
2024/01/26 08:59:55;;;;;;;2.10;2.00;;;;;;;;;;5025985;28;20215;-64
2024/01/26 09:02:23;;;;;;;3.60;1.97;;;;;;;;;;5009549;28;20199;-63
2024/01/26 09:04:53;;;;;;;1.90;1.80;;;;;;;;;;4997968;28;20298;-63
2024/01/26 09:07:22;;;;;;;2.90;2.33;;;;;;;;;;5012647;28;20230;-63
2024/01/26 09:09:50;;;;;;;2.23;2.13;;;;;;;;;;4998270;28;20224;-63
2024/01/26 09:12:17;;;;;;;1.90;1.80;;;;;;;;;;5003919;28;20191;-64
2024/01/26 09:14:45;;;;;;;2.50;2.30;;;;;;;;;;5011986;28;20644;-64
2024/01/26 09:17:12;;;;;;;2.17;2.07;;;;;;;;;;4992691;28;20211;-63
2024/01/26 09:19:40;;;;;;;2.87;2.57;;;;;;;;;;4988230;28;20620;-64
2024/01/26 09:22:08;;;;;;;3.13;2.60;;;;;;;;;;4995603;28;20207;-64
2024/01/26 09:24:35;;;;;;;2.97;2.67;;;;;;;;;;4985437;28;20247;-64
2024/01/26 09:27:03;;;;;;;2.97;2.30;;;;;;;;;;4997203;28;21098;-62
2024/01/26 09:29:30;;;;;;;2.70;2.50;;;;;;;;;;4991990;28;20258;-64
2024/01/26 09:31:59;;;;;;;3.10;2.90;;;;;;;;;;4996268;28;21770;-63
2024/01/26 09:34:27;;;;;;;3.13;2.93;;;;;;;;;;5005558;28;20220;-64
2024/01/26 09:36:55;;;;;;;2.93;2.73;;;;;;;;;;4989668;28;20627;-64
2024/01/26 09:39:24;;;;;;;2.60;2.40;;;;;;;;;;4992483;28;20283;-64
2024/01/26 09:41:55;;;;;;;2.83;2.63;;;;;;;;;;4989610;28;20218;-65
2024/01/26 09:44:22;;;;;;;2.90;2.53;;;;;;;;;;5009837;28;20707;-64
2024/01/26 09:46:50;;;;;;;4.00;2.20;;;;;;;;;;4998139;28;20238;-64
2024/01/26 09:49:18;;;;;;;2.47;2.10;;;;;;;;;;5022206;28;21863;-64
2024/01/26 09:51:45;;;;;;;3.13;2.43;;;;;;;;;;4979983;28;20208;-64
2024/01/26 09:54:13;;;;;;;2.53;2.37;;;;;;;;;;4993334;28;20216;-63
2024/01/26 09:56:41;;;;;;;4.03;3.30;;;;;;;;;;4987234;28;20207;-64
2024/01/26 09:59:11;;;;;;;3.57;2.87;;;;;;;;;;4985242;28;20216;-64
2024/01/26 10:01:41;;;;;;;3.13;2.80;;;;;;;;;;4988523;28;20601;-62
2024/01/26 10:04:09;;;;;;;3.30;2.83;;;;;;;;;;4995395;28;20235;-64
2024/01/26 10:06:37;;;;;;;3.17;2.20;;;;;;;;;;4989427;28;20290;-62
2024/01/26 10:09:08;;;;;;;4.47;2.30;;;;;;;;;;4996923;28;20234;-64
2024/01/26 10:11:36;;;;;;;2.37;2.17;;;;;;;;;;4986326;28;20251;-64
2024/01/26 10:14:04;;;;;;;2.13;1.93;;;;;;;;;;4983832;28;20278;-64
2024/01/26 10:16:32;;;;;;;2.33;2.00;;;;;;;;;;4989457;28;20216;-64
2024/01/26 10:18:59;;;;;;;3.53;2.10;;;;;;;;;;4989133;28;20512;-64
2024/01/26 10:21:28;;;;;;;2.80;2.60;;;;;;;;;;4992410;28;20207;-64
2024/01/26 10:23:56;;;;;;;2.60;2.10;;;;;;;;;;4990790;28;20327;-63
2024/01/26 10:26:23;;;;;;;2.27;2.07;;;;;;;;;;4989204;28;20266;-65
2024/01/26 10:28:51;;;;;;;3.20;2.50;;;;;;;;;;4965884;28;20258;-62
2024/01/26 10:31:20;;;;;;;2.40;2.30;;;;;;;;;;4993817;28;20218;-63
2024/01/26 10:33:51;;;;;;;2.57;2.40;;;;;;;;;;4991649;28;20946;-63
2024/01/26 10:36:20;;;;;;;3.70;2.50;;;;;;;;;;4986981;28;20204;-63
2024/01/26 10:38:47;;;;;;;3.33;2.50;;;;;;;;;;4991317;28;20663;-64
2024/01/26 10:41:21;;;;;;;2.87;2.67;;;;;;;;;;4991675;28;20261;-64
2024/01/26 10:43:52;;;;;;;3.73;2.73;;;;;;;;;;5005765;28;20390;-65
2024/01/26 10:46:22;;;;;;;2.90;2.53;;;;;;;;;;4986571;28;20255;-63
2024/01/26 10:48:51;;;;;;;2.77;2.50;;;;;;;;;;5000510;28;20246;-63
2024/01/26 10:51:21;;;;;;;2.70;2.50;;;;;;;;;;4997249;28;20215;-64
2024/01/26 10:53:51;;;;;;;2.70;2.50;;;;;;;;;;4977108;28;20609;-63
2024/01/26 10:56:18;;;;;;;2.80;2.60;;;;;;;;;;5002591;28;20271;-63
2024/01/26 10:58:46;;;;;;;3.23;2.60;;;;;;;;;;5008463;28;20215;-64
2024/01/26 11:01:14;;;;;;;3.47;2.50;;;;;;;;;;4995569;28;20242;-63
2024/01/26 11:03:44;;;;;;;2.80;2.50;;;;;;;;;;4991130;28;20435;-63
2024/01/26 11:06:13;;;;;;;3.40;2.50;;;;;;;;;;4993286;28;20266;-65
2024/01/26 11:08:41;;;;;;;2.50;2.30;;;;;;;;;;4976422;28;20227;-62
2024/01/26 11:11:09;;;;;;;2.10;1.90;;;;;;;;;;4992645;28;20207;-65
2024/01/26 11:13:40;;;;;;;3.33;2.23;;;;;;;;;;4982632;28;20235;-64
2024/01/26 11:16:10;;;;;;;3.73;2.13;;;;;;;;;;4982077;28;20212;-64
2024/01/26 11:18:38;;;;;;;2.00;1.90;;;;;;;;;;4965241;28;21601;-63
2024/01/26 11:21:06;;;;;;;1.80;1.70;;;;;;;;;;4992540;28;20208;-64
2024/01/26 11:23:44;;;;;;;1.70;1.60;;;;;;;;;;4994966;28;20227;-64
2024/01/26 11:26:14;;;;;;;1.50;1.40;;;;;;;;;;4997173;28;20217;-63
2024/01/26 11:28:41;;;;;;;1.60;1.50;;;;;;;;;;4995273;28;20266;-64
2024/01/26 11:31:08;;;;;;;1.47;1.40;;;;;;;;;;4993728;28;22232;-64
2024/01/26 11:33:37;;;;;;;1.70;1.60;;;;;;;;;;4993309;28;20286;-64
2024/01/26 11:36:08;;;;;;;1.73;1.63;;;;;;;;;;4991700;28;20246;-64
2024/01/26 11:38:37;;;;;;;1.80;1.70;;;;;;;;;;4991767;28;20507;-64
2024/01/26 11:41:05;;;;;;;2.00;1.90;;;;;;;;;;4995885;28;20227;-64
2024/01/26 11:43:32;;;;;;;2.10;2.00;;;;;;;;;;4998880;28;20375;-63
2024/01/26 11:46:00;;;;;;;2.47;1.90;;;;;;;;;;5009545;28;20206;-64
2024/01/26 11:48:29;;;;;;;2.30;1.70;;;;;;;;;;5008173;28;20208;-64
2024/01/26 11:50:57;;;;;;;3.93;1.60;;;;;;;;;;5012526;28;20207;-65
2024/01/26 11:53:25;;;;;;;2.47;1.80;;;;;;;;;;5010344;28;20881;-62
2024/01/26 11:55:54;;;;;;;2.70;2.10;;;;;;;;;;5010483;28;20932;-63
2024/01/26 11:58:22;;;;;;;2.20;1.87;;;;;;;;;;5012305;28;20211;-64
2024/01/26 12:00:49;;;;;;;1.87;1.77;;;;;;;;;;5009596;28;20214;-62
2024/01/26 12:03:18;;;;;;;2.00;1.80;;;;;;;;;;5008128;28;20284;-64
2024/01/26 12:05:46;;;;;;;2.03;1.90;;;;;;;;;;5010174;28;20325;-63
2024/01/26 12:08:14;;;;;;;2.27;1.90;;;;;;;;;;5017312;28;20216;-65
2024/01/26 12:10:42;;;;;;;2.27;1.80;;;;;;;;;;5011370;28;20652;-64
2024/01/26 12:13:15;;;;;;;2.90;1.80;;;;;;;;;;5008810;28;20244;-64
2024/01/26 12:15:44;;;;;;;1.70;1.60;;;;;;;;;;5003288;28;20803;-63
2024/01/26 12:18:12;;;;;;;3.87;2.67;;;;;;;;;;4991169;28;20207;-63
2024/01/26 12:20:40;;;;;;;5.00;4.20;;;;;;;;;;4990025;28;20215;-63
2024/01/26 12:23:15;;;;;;;1.63;1.57;;;;;;;;;;4994500;28;20644;-64
2024/01/26 12:25:45;;;;;;;2.00;1.27;;;;;;;;;;4997586;28;20200;-64
2024/01/26 12:28:19;;;;;;;1.70;1.60;;;;;;;;;;5002332;28;20199;-64
2024/01/26 12:30:53;;;;;;;1.60;1.50;;;;;;;;;;4998431;28;20231;-64
2024/01/26 12:33:26;;;;;;;1.67;1.57;;;;;;;;;;5007567;28;20707;-64
2024/01/26 12:35:56;;;;;;;3.80;2.27;;;;;;;;;;5011651;28;20218;-63
2024/01/26 12:38:23;;;;;;;1.70;1.60;;;;;;;;;;5019321;28;20294;-64
2024/01/26 12:40:51;;;;;;;1.33;1.23;;;;;;;;;;5011659;28;20647;-64
2024/01/26 12:43:18;;;;;;;1.40;1.30;;;;;;;;;;5011615;28;20342;-62
2024/01/26 12:45:46;;;;;;;1.20;1.20;;;;;;;;;;5013699;28;20222;-63
2024/01/26 12:48:14;;;;;;;1.80;1.70;;;;;;;;;;5009465;28;20215;-63
2024/01/26 12:50:41;;;;;;;2.03;1.90;;;;;;;;;;4989501;28;20224;-62
2024/01/26 12:53:10;;;;;;;2.07;1.60;;;;;;;;;;4988223;28;20235;-62
2024/01/26 12:55:37;;;;;;;1.47;1.40;;;;;;;;;;4991205;28;20276;-63
2024/01/26 12:58:05;;;;;;;2.03;1.90;;;;;;;;;;4992486;28;20577;-64
2024/01/26 13:00:34;;;;;;;1.37;1.30;;;;;;;;;;4994859;28;20724;-63
2024/01/26 13:03:03;;;;;;;1.10;1.10;;;;;;;;;;5031912;28;20322;-63
2024/01/26 13:05:31;;;;;;;1.20;1.20;;;;;;;;;;4996919;28;20216;-64
2024/01/26 13:07:58;;;;;;;1.20;1.10;;;;;;;;;;4975495;28;20212;-64
2024/01/26 13:10:26;;;;;;;1.20;1.20;;;;;;;;;;4988490;28;20362;-63
2024/01/26 13:12:53;;;;;;;1.80;1.70;;;;;;;;;;4991476;28;20223;-63
2024/01/26 13:15:21;;;;;;;1.10;1.10;;;;;;;;;;4992904;28;20196;-64
2024/01/26 13:17:50;;;;;;;1.77;1.30;;;;;;;;;;4995506;28;20491;-63
2024/01/26 13:20:19;;;;;;;1.23;1.20;;;;;;;;;;4993351;28;20689;-64
2024/01/26 13:22:49;;;;;;;1.30;1.20;;;;;;;;;;4991772;28;20742;-62
2024/01/26 13:25:19;;;;;;;1.10;1.10;;;;;;;;;;5006848;28;20207;-63
2024/01/26 13:27:47;;;;;;;1.10;1.10;;;;;;;;;;5002450;28;20211;-62
2024/01/26 13:30:15;;;;;;;1.40;1.30;;;;;;;;;;4995159;28;20258;-64
2024/01/26 13:32:45;;;;;;;1.93;1.20;;;;;;;;;;4989829;28;20297;-62
2024/01/26 13:35:14;;;;;;;1.17;1.13;;;;;;;;;;4977349;28;20574;-64
2024/01/26 13:37:41;;;;;;;1.30;1.10;;;;;;;;;;4991305;28;20203;-64
2024/01/26 13:40:09;;;;;;;1.00;1.00;;;;;;;;;;4987418;28;20212;-62
2024/01/26 13:42:37;;;;;;;1.00;1.00;;;;;;;;;;4995347;28;20204;-61
2024/01/26 13:45:06;;;;;;;2.00;1.90;;;;;;;;;;4990167;28;20254;-63
2024/01/26 13:47:34;;;;;;;1.20;1.20;;;;;;;;;;5011557;28;20221;-62
2024/01/26 13:50:01;;;;;;;1.10;1.10;;;;;;;;;;5005525;28;20240;-63
2024/01/26 13:52:29;;;;;;;1.87;1.30;;;;;;;;;;5009272;28;20195;-62
2024/01/26 13:54:57;;;;;;;1.37;1.27;;;;;;;;;;5005572;28;20239;-64
2024/01/26 13:57:24;;;;;;;1.47;1.47;;;;;;;;;;5012529;28;20200;-64
2024/01/26 13:59:54;;;;;;;1.70;1.60;;;;;;;;;;5014788;28;20302;-62
2024/01/26 14:02:43;;;;;;;1.20;1.10;;;;;;;;;;5011282;28;20203;-63
2024/01/26 14:05:15;;;;;;;1.10;1.10;;;;;;;;;;5009307;28;20215;-62
2024/01/26 14:07:45;;;;;;;1.83;1.73;;;;;;;;;;5001179;28;20338;-64
2024/01/26 14:10:14;;;;;;;1.30;1.20;;;;;;;;;;5009803;28;20241;-64
2024/01/26 14:12:44;;;;;;;1.40;1.30;;;;;;;;;;5016093;28;20222;-64
2024/01/26 14:15:14;;;;;;;1.20;1.10;;;;;;;;;;5005365;28;20211;-64
2024/01/26 14:17:42;;;;;;;1.67;1.00;;;;;;;;;;5001090;28;20869;-62
2024/01/26 14:20:10;;;;;;;1.10;1.10;;;;;;;;;;4993097;28;20323;-64
2024/01/26 14:22:38;;;;;;;1.30;1.20;;;;;;;;;;4992310;28;20211;-63
2024/01/26 14:25:06;;;;;;;1.10;1.10;;;;;;;;;;4989811;28;20308;-64
2024/01/26 14:27:36;;;;;;;1.90;1.10;;;;;;;;;;4986601;28;20442;-62
2024/01/26 14:30:10;;;;;;;1.17;1.17;;;;;;;;;;5001387;28;20231;-64
2024/01/26 14:32:45;;;;;;;1.07;1.07;;;;;;;;;;5001016;28;20205;-64
2024/01/26 14:35:22;;;;;;;1.03;1.03;;;;;;;;;;4995091;28;20628;-63
2024/01/26 14:37:54;;;;;;;1.37;1.10;;;;;;;;;;4980952;28;20199;-64
2024/01/26 14:40:33;;;;;;;1.20;1.10;;;;;;;;;;4994328;28;20218;-63
2024/01/26 14:43:08;;;;;;;1.00;0.93;;;;;;;;;;4989702;28;20730;-64
2024/01/26 14:45:36;;;;;;;1.60;1.07;;;;;;;;;;5010711;28;20208;-63
2024/01/26 14:48:07;;;;;;;1.73;1.10;;;;;;;;;;4993895;28;20238;-63